createdAt,value
2017-11-14T00:05:25.245Z,99897.62
2017-11-14T00:11:28.716Z,99903.20
2017-11-14T00:17:32.952Z,99901.81
2017-11-14T00:23:36.411Z,99896.84
2017-11-14T00:29:40.013Z,99908.75
2017-11-14T00:35:43.474Z,99917.66
2017-11-14T00:41:46.943Z,99916.25
2017-11-14T00:47:51.170Z,99923.81
2017-11-14T00:53:54.623Z,99932.23
2017-11-14T00:59:58.101Z,99929.69
2017-11-14T01:06:01.564Z,99931.01
2017-11-14T01:12:05.042Z,99932.93
2017-11-14T01:18:08.515Z,99932.23
2017-11-14T01:24:11.995Z,99935.73
2017-11-14T01:30:15.467Z,99943.75
2017-11-14T01:36:19.280Z,99950.53
2017-11-14T01:42:22.733Z,99935.16
2017-11-14T01:48:26.278Z,99940.69
2017-11-14T01:54:29.750Z,99938.02
2017-11-14T02:00:50.016Z,99935.45
2017-11-14T02:06:53.802Z,99937.56
2017-11-14T02:12:57.272Z,99941.92
2017-11-14T02:19:00.728Z,99937.47
2017-11-14T02:25:04.936Z,99941.42
2017-11-14T02:31:08.405Z,99936.97
2017-11-14T02:37:12.636Z,99935.14
2017-11-14T02:43:16.074Z,99944.83
2017-11-14T02:49:19.519Z,99947.73
2017-11-14T02:55:23.000Z,99959.30
2017-11-14T03:01:26.465Z,99963.80
2017-11-14T03:07:29.963Z,99969.06
2017-11-14T03:13:34.768Z,99976.32
2017-11-14T03:19:38.209Z,99983.97
2017-11-14T03:25:41.963Z,99989.39
2017-11-14T03:31:45.393Z,100007.56
2017-11-14T03:37:49.629Z,99999.19
2017-11-14T03:43:53.108Z,100002.03
2017-11-14T03:49:56.570Z,100001.12
2017-11-14T03:56:00.795Z,100008.62
2017-11-14T04:02:04.615Z,100014.64
2017-11-14T04:08:08.408Z,100015.24
2017-11-14T04:14:12.028Z,100013.05
2017-11-14T04:20:16.257Z,100020.20
2017-11-14T04:26:19.876Z,100026.67
2017-11-14T04:32:23.356Z,100030.66
2017-11-14T04:38:26.818Z,100033.02
2017-11-14T04:44:30.331Z,100043.53
2017-11-14T04:50:33.798Z,100048.48
2017-11-14T04:56:37.283Z,100041.32
2017-11-14T05:02:40.735Z,100050.31
2017-11-14T05:08:45.291Z,100046.66
2017-11-14T05:14:48.779Z,100046.92
2017-11-14T05:20:52.255Z,100066.27
2017-11-14T05:26:55.726Z,100070.97
2017-11-14T05:32:59.194Z,100071.84
2017-11-14T05:39:03.266Z,100074.87
2017-11-14T05:45:07.488Z,100081.02
2017-11-14T05:51:10.967Z,100073.48
2017-11-14T05:57:14.438Z,100082.99
2017-11-14T06:03:18.689Z,100090.09
2017-11-14T06:09:22.378Z,100083.27
2017-11-14T06:15:25.815Z,100086.72
2017-11-14T06:21:30.168Z,100092.33
2017-11-14T06:27:33.733Z,100106.94
2017-11-14T06:33:37.207Z,100097.44
2017-11-14T06:39:40.692Z,100105.77
2017-11-14T06:45:44.182Z,100109.32
2017-11-14T06:51:47.649Z,100108.61
2017-11-14T06:57:51.482Z,100113.01
2017-11-14T07:03:54.935Z,100116.61
2017-11-14T07:09:58.394Z,100116.45
2017-11-14T07:16:03.320Z,100118.34
2017-11-14T07:22:06.791Z,100126.65
2017-11-14T07:28:11.354Z,100133.64
2017-11-14T07:34:14.818Z,100139.77
2017-11-14T07:40:18.289Z,100137.80
2017-11-14T07:46:21.801Z,100139.36
2017-11-14T07:52:25.324Z,100152.54
2017-11-14T07:58:29.572Z,100160.55
2017-11-14T08:04:33.045Z,100173.15
2017-11-14T08:10:36.523Z,100180.69
2017-11-14T08:16:39.996Z,100175.55
2017-11-14T08:22:44.253Z,100180.53
2017-11-14T08:28:47.773Z,100169.52
2017-11-14T08:34:51.257Z,100166.11
2017-11-14T08:40:54.725Z,100152.58
2017-11-14T08:46:58.486Z,100146.54
2017-11-14T08:53:01.949Z,100152.68
2017-11-14T08:59:05.775Z,100167.65
2017-11-14T09:05:09.220Z,100155.27
2017-11-14T09:11:12.693Z,100143.80
2017-11-14T09:17:16.507Z,100152.73
2017-11-14T09:23:19.974Z,100159.58
2017-11-14T09:29:23.800Z,100173.55
2017-11-14T09:35:27.250Z,100165.56
2017-11-14T09:41:30.702Z,100165.23
2017-11-14T09:47:34.154Z,100164.14
2017-11-14T09:53:37.921Z,100159.95
2017-11-14T09:59:41.361Z,100163.31
2017-11-14T10:05:44.835Z,100153.63
2017-11-14T10:11:48.360Z,100160.17
2017-11-14T10:17:51.815Z,100158.93
2017-11-14T10:23:55.260Z,100155.58
2017-11-14T10:29:58.708Z,100155.45
2017-11-14T10:36:02.548Z,100142.47
2017-11-14T10:42:05.978Z,100145.41
2017-11-14T10:48:09.703Z,100136.45
2017-11-14T10:54:13.128Z,100144.82
2017-11-14T11:00:22.701Z,100146.48
2017-11-14T11:06:26.148Z,100156.19
2017-11-14T11:12:30.354Z,100151.08
2017-11-14T11:18:34.913Z,100156.46
2017-11-14T11:24:38.392Z,100152.95
2017-11-14T11:30:41.846Z,100146.38
2017-11-14T11:36:45.294Z,100132.52
2017-11-14T11:42:48.764Z,100136.19
2017-11-14T11:48:52.236Z,100118.04
2017-11-14T11:54:56.025Z,100113.00
2017-11-14T12:00:59.536Z,100111.02
2017-11-14T12:07:04.014Z,100106.52
2017-11-14T12:13:07.463Z,100105.17
2017-11-14T12:19:10.927Z,100100.28
2017-11-14T12:25:15.148Z,100101.79
2017-11-14T12:31:18.588Z,100094.55
2017-11-14T12:37:22.455Z,100100.61
2017-11-14T12:43:25.910Z,100099.62
2017-11-14T12:49:29.387Z,100098.52
2017-11-14T12:55:32.974Z,100095.46
2017-11-14T13:01:36.459Z,100091.25
2017-11-14T13:07:39.931Z,100095.42
2017-11-14T13:13:44.169Z,100101.10
2017-11-14T13:19:47.638Z,100091.78
2017-11-14T13:25:51.097Z,100079.34
2017-11-14T13:31:55.314Z,100069.91
2017-11-14T13:37:58.759Z,100067.31
2017-11-14T13:44:02.355Z,100085.59
2017-11-14T13:50:05.825Z,100080.05
2017-11-14T13:56:09.609Z,100078.13
2017-11-14T14:02:13.080Z,100086.27
2017-11-14T14:08:16.868Z,100092.97
2017-11-14T14:14:20.339Z,100090.95
2017-11-14T14:20:23.806Z,100099.70
2017-11-14T14:26:27.630Z,100089.03
2017-11-14T14:32:31.123Z,100090.08
2017-11-14T14:38:34.591Z,100080.67
2017-11-14T14:44:38.049Z,100071.16
2017-11-14T14:50:41.875Z,100085.33
2017-11-14T14:56:45.341Z,100083.22
2017-11-14T15:02:49.152Z,100083.36
2017-11-14T15:08:52.624Z,100082.27
2017-11-14T15:14:56.190Z,100081.09
2017-11-14T15:20:59.665Z,100098.70
2017-11-14T15:27:03.135Z,100098.43
2017-11-14T15:33:07.369Z,100103.82
2017-11-14T15:39:10.894Z,100110.95
2017-11-14T15:45:14.382Z,100110.29
2017-11-14T15:51:17.866Z,100098.88
2017-11-14T15:57:22.124Z,100105.02
2017-11-14T16:03:25.596Z,100106.68
2017-11-14T16:09:29.064Z,100120.48
2017-11-14T16:15:32.526Z,100112.30
2017-11-14T16:21:36.033Z,100117.96
2017-11-14T16:27:39.517Z,100123.38
2017-11-14T16:33:43.776Z,100127.82
2017-11-14T16:39:47.556Z,100133.40
2017-11-14T16:45:51.013Z,100137.37
2017-11-14T16:51:54.639Z,100139.95
2017-11-14T16:57:58.097Z,100140.66
2017-11-14T17:04:01.574Z,100140.59
2017-11-14T17:10:05.047Z,100140.52
2017-11-14T17:16:08.560Z,100151.48
2017-11-14T17:22:12.028Z,100151.95
2017-11-14T17:28:15.547Z,100155.03
2017-11-14T17:34:19.040Z,100149.58
2017-11-14T17:40:22.506Z,100153.88
2017-11-14T17:46:25.992Z,100162.33
2017-11-14T17:52:29.868Z,100158.67
2017-11-14T17:58:33.356Z,100162.84
2017-11-14T18:04:36.839Z,100170.30
2017-11-14T18:10:40.346Z,100175.17
2017-11-14T18:16:43.825Z,100173.09
2017-11-14T18:22:47.309Z,100180.67
2017-11-14T18:28:50.786Z,100192.58
2017-11-14T18:34:54.269Z,100200.58
2017-11-14T18:40:57.741Z,100208.53
2017-11-14T18:47:01.243Z,100204.95
2017-11-14T18:53:04.736Z,100213.87
2017-11-14T18:59:08.229Z,100218.77
2017-11-14T19:05:11.751Z,100215.86
2017-11-14T19:11:15.242Z,100216.36
2017-11-14T19:17:18.732Z,100222.78
2017-11-14T19:23:22.239Z,100221.39
2017-11-14T19:29:26.527Z,100228.86
2017-11-14T19:35:30.083Z,100234.48
2017-11-14T19:41:34.310Z,100240.80
2017-11-14T19:47:37.816Z,100237.39
2017-11-14T19:53:42.144Z,100245.44
2017-11-14T19:59:47.126Z,100254.81
2017-11-14T20:05:50.615Z,100259.30
2017-11-14T20:11:54.109Z,100258.46
2017-11-14T20:17:57.572Z,100265.53
2017-11-14T20:24:01.125Z,100274.56
2017-11-14T20:30:05.394Z,100269.28
2017-11-14T20:36:08.857Z,100283.77
2017-11-14T20:42:12.663Z,100288.26
2017-11-14T20:48:16.195Z,100281.00
2017-11-14T20:54:19.680Z,100278.52
2017-11-14T21:00:23.207Z,100281.76
2017-11-14T21:06:26.688Z,100282.77
2017-11-14T21:12:30.504Z,100283.63
2017-11-14T21:18:33.981Z,100286.77
2017-11-14T21:24:37.494Z,100288.01
2017-11-14T21:30:41.724Z,100284.66
2017-11-14T21:36:45.211Z,100280.09
2017-11-14T21:42:48.667Z,100282.83
2017-11-14T21:48:52.924Z,100283.56
2017-11-14T21:54:56.400Z,100288.16
2017-11-14T22:00:59.931Z,100287.22
2017-11-14T22:07:04.671Z,100283.52
2017-11-14T22:13:08.493Z,100287.41
2017-11-14T22:19:12.013Z,100286.59
2017-11-14T22:25:15.470Z,100294.79
2017-11-14T22:31:18.938Z,100298.31
2017-11-14T22:37:24.044Z,100296.70
2017-11-14T22:43:27.532Z,100298.92
2017-11-14T22:49:31.540Z,100293.46
2017-11-14T22:55:35.018Z,100300.56
2017-11-14T23:01:38.484Z,100295.48
2017-11-14T23:07:42.029Z,100291.48
2017-11-14T23:13:45.556Z,100294.84
2017-11-14T23:19:49.061Z,100297.38
2017-11-14T23:25:52.607Z,100300.77
2017-11-14T23:31:56.156Z,100287.78
2017-11-14T23:38:00.474Z,100289.80
2017-11-14T23:44:03.973Z,100283.70
2017-11-14T23:50:08.298Z,100294.91
2017-11-14T23:56:11.863Z,100288.83
